createdAt,value
2018-11-02T00:00:54.291Z,99630.19
2018-11-02T00:05:47.918Z,99636.39
2018-11-02T00:10:42.245Z,99634.63
2018-11-02T00:15:36.324Z,99633.38
2018-11-02T00:20:29.459Z,99634.87
2018-11-02T00:25:23.631Z,99632.19
2018-11-02T00:30:17.425Z,99635.80
2018-11-02T00:35:10.849Z,99639.97
2018-11-02T00:40:05.732Z,99635.52
2018-11-02T00:44:58.955Z,99628.60
2018-11-02T00:49:52.090Z,99632.78
2018-11-02T00:54:45.974Z,99640.59
2018-11-02T00:59:39.649Z,99643.33
2018-11-02T01:04:33.030Z,99642.77
2018-11-02T01:09:26.352Z,99633.52
2018-11-02T01:14:19.574Z,99630.27
2018-11-02T01:19:14.295Z,99632.88
2018-11-02T01:24:07.602Z,99628.33
2018-11-02T01:29:00.774Z,99620.86
2018-11-02T01:33:56.278Z,99627.42
2018-11-02T01:38:49.858Z,99618.37
2018-11-02T01:43:43.102Z,99619.47
2018-11-02T01:48:37.052Z,99610.91
2018-11-02T01:53:30.417Z,99613.83
2018-11-02T01:58:23.561Z,99605.63
2018-11-02T02:03:16.701Z,99608.55
2018-11-02T02:08:12.589Z,99610.93
2018-11-02T02:13:07.207Z,99609.27
2018-11-02T02:18:01.268Z,99617.45
2018-11-02T02:22:58.414Z,99617.82
2018-11-02T02:27:52.873Z,99614.75
2018-11-02T02:32:46.299Z,99622.73
2018-11-02T02:37:40.574Z,99612.91
2018-11-02T02:42:35.201Z,99614.39
2018-11-02T02:47:29.515Z,99619.84
2018-11-02T02:52:22.925Z,99614.72
2018-11-02T02:57:16.526Z,99617.44
2018-11-02T03:02:10.719Z,99610.92
2018-11-02T03:07:06.952Z,99615.62
2018-11-02T03:12:00.158Z,99615.83
2018-11-02T03:16:53.594Z,99620.00
2018-11-02T03:21:47.488Z,99620.37
2018-11-02T03:26:40.709Z,99621.28
2018-11-02T03:31:34.194Z,99625.42
2018-11-02T03:36:27.708Z,99617.61
2018-11-02T03:41:21.346Z,99613.99
2018-11-02T03:46:17.108Z,99617.35
2018-11-02T03:51:10.305Z,99623.17
2018-11-02T03:56:03.855Z,99628.09
2018-11-02T04:00:57.040Z,99620.42
2018-11-02T04:05:51.699Z,99615.55
2018-11-02T04:10:44.948Z,99621.53
2018-11-02T04:15:38.215Z,99623.31
2018-11-02T04:20:31.574Z,99616.66
2018-11-02T04:25:25.238Z,99622.64
2018-11-02T04:30:18.580Z,99610.64
2018-11-02T04:35:11.717Z,99617.72
2018-11-02T04:40:05.906Z,99606.34
2018-11-02T04:44:59.227Z,99606.29
2018-11-02T04:49:52.403Z,99596.09
2018-11-02T04:54:45.589Z,99592.66
2018-11-02T04:59:38.796Z,99602.95
2018-11-02T05:04:32.047Z,99611.67
2018-11-02T05:09:25.350Z,99610.58
2018-11-02T05:14:18.573Z,99612.97
2018-11-02T05:19:11.773Z,99612.11
2018-11-02T05:24:05.421Z,99622.42
2018-11-02T05:28:58.698Z,99624.95
2018-11-02T05:33:51.852Z,99642.75
2018-11-02T05:38:45.012Z,99643.91
2018-11-02T05:43:38.256Z,99645.50
2018-11-02T05:48:31.515Z,99665.17
2018-11-02T05:53:24.827Z,99673.17
2018-11-02T05:58:18.097Z,99675.05
2018-11-02T06:03:12.464Z,99673.41
2018-11-02T06:08:06.019Z,99682.30
2018-11-02T06:12:59.400Z,99687.21
2018-11-02T06:17:52.716Z,99695.75
2018-11-02T06:22:45.950Z,99696.49
2018-11-02T06:27:40.269Z,99701.02
2018-11-02T06:32:33.684Z,99688.12
2018-11-02T06:37:26.913Z,99685.02
2018-11-02T06:42:20.226Z,99690.77
2018-11-02T06:47:13.540Z,99690.41
2018-11-02T06:52:06.825Z,99698.01
2018-11-02T06:57:00.276Z,99697.03
2018-11-02T07:01:53.664Z,99687.16
2018-11-02T07:06:47.003Z,99678.14
2018-11-02T07:11:40.279Z,99668.50
2018-11-02T07:16:33.567Z,99664.77
2018-11-02T07:21:26.711Z,99663.95
2018-11-02T07:26:19.965Z,99667.90
2018-11-02T07:31:13.108Z,99658.84
2018-11-02T07:36:06.417Z,99659.80
2018-11-02T07:40:59.605Z,99660.62
2018-11-02T07:45:52.827Z,99654.61
2018-11-02T07:50:46.156Z,99642.31
2018-11-02T07:55:39.436Z,99636.48
2018-11-02T08:00:32.711Z,99642.34
2018-11-02T08:05:25.989Z,99643.98
2018-11-02T08:10:19.123Z,99646.72
2018-11-02T08:15:13.414Z,99644.28
2018-11-02T08:20:07.002Z,99641.19
2018-11-02T08:25:00.182Z,99635.69
2018-11-02T08:29:54.244Z,99636.19
2018-11-02T08:34:47.782Z,99626.33
2018-11-02T08:39:41.134Z,99629.14
2018-11-02T08:44:34.457Z,99634.95
2018-11-02T08:49:27.782Z,99642.37
2018-11-02T08:54:21.003Z,99635.08
2018-11-02T08:59:14.545Z,99627.25
2018-11-02T09:04:07.693Z,99626.87
2018-11-02T09:09:01.004Z,99621.19
2018-11-02T09:13:54.364Z,99616.94
2018-11-02T09:18:47.613Z,99608.59
2018-11-02T09:23:40.763Z,99596.38
2018-11-02T09:28:34.577Z,99590.94
2018-11-02T09:33:27.771Z,99586.12
2018-11-02T09:38:21.010Z,99571.66
2018-11-02T09:43:15.274Z,99570.00
2018-11-02T09:48:08.582Z,99561.38
2018-11-02T09:53:05.472Z,99556.84
2018-11-02T09:57:58.710Z,99545.39
2018-11-02T10:02:52.672Z,99534.54
2018-11-02T10:07:46.384Z,99527.36
2018-11-02T10:12:40.722Z,99521.57
2018-11-02T10:17:34.725Z,99507.47
2018-11-02T10:22:29.152Z,99502.38
2018-11-02T10:27:23.818Z,99496.53
2018-11-02T10:32:26.386Z,99489.55
2018-11-02T10:37:20.195Z,99489.70
2018-11-02T10:42:14.420Z,99489.00
2018-11-02T10:47:09.105Z,99479.80
2018-11-02T10:52:03.938Z,99482.72
2018-11-02T10:56:57.788Z,99477.91
2018-11-02T11:02:00.797Z,99476.17
2018-11-02T11:06:54.468Z,99474.63
2018-11-02T11:11:49.439Z,99471.06
2018-11-02T11:16:44.028Z,99466.92
2018-11-02T11:21:41.697Z,99455.14
2018-11-02T11:26:37.205Z,99453.81
2018-11-02T11:31:31.423Z,99445.50
2018-11-02T11:36:26.448Z,99441.67
2018-11-02T11:41:20.259Z,99433.25
2018-11-02T11:46:13.930Z,99430.07
2018-11-02T11:51:07.946Z,99424.86
2018-11-02T11:56:01.851Z,99415.10
2018-11-02T12:00:56.705Z,99415.15
2018-11-02T12:05:50.308Z,99413.40
2018-11-02T12:10:44.122Z,99405.97
2018-11-02T12:15:38.591Z,99410.28
2018-11-02T12:20:32.763Z,99405.77
2018-11-02T12:25:27.617Z,99399.08
2018-11-02T12:30:21.964Z,99393.47
2018-11-02T12:35:16.809Z,99391.58
2018-11-02T12:40:12.620Z,99390.56
2018-11-02T12:45:07.251Z,99386.05
2018-11-02T12:50:00.638Z,99383.69
2018-11-02T12:54:56.608Z,99387.16
2018-11-02T12:59:49.830Z,99385.09
2018-11-02T13:04:45.590Z,99383.18
2018-11-02T13:09:38.868Z,99377.38
2018-11-02T13:14:32.091Z,99385.95
2018-11-02T13:19:25.322Z,99387.59
2018-11-02T13:24:18.642Z,99389.81
2018-11-02T13:29:12.836Z,99388.29
2018-11-02T13:34:06.053Z,99391.84
2018-11-02T13:38:59.285Z,99398.27
2018-11-02T13:43:52.572Z,99395.77
2018-11-02T13:48:45.772Z,99396.16
2018-11-02T13:53:39.022Z,99401.47
2018-11-02T13:58:32.185Z,99400.56
2018-11-02T14:03:25.549Z,99396.64
2018-11-02T14:08:18.675Z,99407.32
2018-11-02T14:13:12.012Z,99404.89
2018-11-02T14:18:05.312Z,99408.80
2018-11-02T14:22:58.612Z,99405.19
2018-11-02T14:27:52.117Z,99408.11
2018-11-02T14:32:46.234Z,99406.41
2018-11-02T14:37:40.047Z,99411.52
2018-11-02T14:42:33.408Z,99415.88
2018-11-02T14:47:26.613Z,99422.81
2018-11-02T14:52:19.941Z,99422.47
2018-11-02T14:57:13.197Z,99420.95
2018-11-02T15:02:06.812Z,99435.83
2018-11-02T15:07:00.057Z,99431.38
2018-11-02T15:11:54.630Z,99440.38
2018-11-02T15:16:47.906Z,99440.95
2018-11-02T15:21:41.347Z,99443.52
2018-11-02T15:26:34.803Z,99447.86
2018-11-02T15:31:27.926Z,99448.30
2018-11-02T15:36:21.331Z,99458.08
2018-11-02T15:41:14.827Z,99472.66
2018-11-02T15:46:08.131Z,99476.39
2018-11-02T15:51:01.405Z,99488.31
2018-11-02T15:55:54.890Z,99496.97
2018-11-02T16:00:48.653Z,99506.93
2018-11-02T16:05:43.064Z,99511.19
2018-11-02T16:10:36.798Z,99518.58
2018-11-02T16:15:30.721Z,99524.84
2018-11-02T16:20:23.971Z,99533.17
2018-11-02T16:25:18.021Z,99530.66
2018-11-02T16:30:11.727Z,99540.91
2018-11-02T16:35:05.522Z,99553.53
2018-11-02T16:39:58.884Z,99559.93
2018-11-02T16:44:53.243Z,99559.64
2018-11-02T16:49:47.381Z,99559.13
2018-11-02T16:54:40.748Z,99559.03
2018-11-02T16:59:34.766Z,99570.34
2018-11-02T17:04:29.054Z,99568.93
2018-11-02T17:09:22.798Z,99574.44
2018-11-02T17:14:17.661Z,99573.50
2018-11-02T17:19:11.559Z,99565.71
2018-11-02T17:24:04.878Z,99572.98
2018-11-02T17:28:58.500Z,99579.91
2018-11-02T17:33:52.369Z,99580.69
2018-11-02T17:38:45.639Z,99578.53
2018-11-02T17:43:39.522Z,99587.08
2018-11-02T17:48:34.067Z,99587.61
2018-11-02T17:53:27.588Z,99592.55
2018-11-02T17:58:23.029Z,99583.45
2018-11-02T18:03:18.886Z,99587.11
2018-11-02T18:08:13.212Z,99590.22
2018-11-02T18:13:09.430Z,99588.95
2018-11-02T18:18:05.766Z,99592.41
2018-11-02T18:22:59.049Z,99592.95
2018-11-02T18:27:57.552Z,99589.31
2018-11-02T18:32:51.689Z,99590.03
2018-11-02T18:37:45.223Z,99598.94
2018-11-02T18:42:40.866Z,99596.41
2018-11-02T18:47:39.715Z,99596.58
2018-11-02T18:52:33.709Z,99592.61
2018-11-02T18:57:28.360Z,99600.22
2018-11-02T19:02:23.173Z,99603.83
2018-11-02T19:07:17.355Z,99613.37
2018-11-02T19:12:10.814Z,99603.70
2018-11-02T19:17:06.311Z,99612.59
2018-11-02T19:22:02.217Z,99610.72
2018-11-02T19:26:55.862Z,99607.13
2018-11-02T19:31:51.014Z,99625.20
2018-11-02T19:36:46.706Z,99623.94
2018-11-02T19:41:41.190Z,99621.36
2018-11-02T19:46:36.641Z,99624.17
2018-11-02T19:51:30.666Z,99624.32
2018-11-02T19:56:24.376Z,99628.09
2018-11-02T20:01:18.498Z,99644.96
2018-11-02T20:06:12.754Z,99644.69
2018-11-02T20:11:08.352Z,99637.72
2018-11-02T20:16:03.230Z,99636.73
2018-11-02T20:20:56.839Z,99638.38
2018-11-02T20:25:51.436Z,99633.03
2018-11-02T20:30:45.102Z,99627.73
2018-11-02T20:35:39.634Z,99627.61
2018-11-02T20:40:33.407Z,99637.70
2018-11-02T20:45:28.431Z,99636.72
2018-11-02T20:50:22.087Z,99636.56
2018-11-02T20:55:16.222Z,99632.40
2018-11-02T21:00:12.902Z,99637.20
2018-11-02T21:05:12.659Z,99613.70
2018-11-02T21:10:08.436Z,99622.43
2018-11-02T21:15:03.176Z,99620.25
2018-11-02T21:19:56.646Z,99619.80
2018-11-02T21:24:51.480Z,99632.28
2018-11-02T21:29:45.209Z,99618.33
2018-11-02T21:34:39.393Z,99613.86
2018-11-02T21:39:33.432Z,99613.70
2018-11-02T21:44:27.541Z,99619.16
2018-11-02T21:49:20.922Z,99603.22
2018-11-02T21:54:14.526Z,99604.65
2018-11-02T21:59:08.631Z,99604.97
2018-11-02T22:04:02.543Z,99600.99
2018-11-02T22:08:55.844Z,99604.99
2018-11-02T22:13:49.087Z,99599.78
2018-11-02T22:18:43.247Z,99597.53
2018-11-02T22:23:36.563Z,99594.48
2018-11-02T22:28:30.332Z,99596.13
2018-11-02T22:33:23.617Z,99596.65
2018-11-02T22:38:17.864Z,99591.59
2018-11-02T22:43:11.416Z,99591.22
2018-11-02T22:48:10.115Z,99585.84
2018-11-02T22:53:03.307Z,99578.96
2018-11-02T22:57:58.487Z,99584.44
2018-11-02T23:02:51.759Z,99583.84
2018-11-02T23:07:45.480Z,99579.92
2018-11-02T23:12:38.969Z,99582.22
2018-11-02T23:17:33.235Z,99583.89
2018-11-02T23:22:26.542Z,99579.69
2018-11-02T23:27:19.859Z,99580.25
2018-11-02T23:32:13.175Z,99579.77
2018-11-02T23:37:06.413Z,99577.57
2018-11-02T23:41:59.738Z,99581.26
2018-11-02T23:46:52.973Z,99577.67
2018-11-02T23:51:46.204Z,99584.59
2018-11-02T23:56:39.453Z,99584.94
